sensor_id;sensor_type;location;lat;lon;timestamp;P1;durP1;ratioP1;P2;durP2;ratioP2
1218;SDS011;599;51.494;6.670;2022-09-03T00:00:36;6.03;;;2.60;;
1218;SDS011;599;51.494;6.670;2022-09-03T00:03:17;4.70;;;1.97;;
1218;SDS011;599;51.494;6.670;2022-09-03T00:06:01;7.73;;;2.50;;
1218;SDS011;599;51.494;6.670;2022-09-03T00:14:40;3.90;;;2.60;;
1218;SDS011;599;51.494;6.670;2022-09-03T00:17:14;4.90;;;2.33;;
1218;SDS011;599;51.494;6.670;2022-09-03T00:19:45;4.13;;;2.60;;
1218;SDS011;599;51.494;6.670;2022-09-03T00:22:37;5.43;;;2.37;;
1218;SDS011;599;51.494;6.670;2022-09-03T00:25:11;3.80;;;2.47;;
1218;SDS011;599;51.494;6.670;2022-09-03T00:27:43;6.23;;;2.43;;
1218;SDS011;599;51.494;6.670;2022-09-03T00:30:15;8.00;;;3.30;;
1218;SDS011;599;51.494;6.670;2022-09-03T00:32:44;5.83;;;2.50;;
1218;SDS011;599;51.494;6.670;2022-09-03T00:35:32;4.60;;;2.60;;
1218;SDS011;599;51.494;6.670;2022-09-03T00:38:05;7.63;;;2.57;;
1218;SDS011;599;51.494;6.670;2022-09-03T00:43:46;7.17;;;2.67;;
1218;SDS011;599;51.494;6.670;2022-09-03T00:46:25;3.73;;;2.17;;
1218;SDS011;599;51.494;6.670;2022-09-03T00:49:12;6.82;;;3.20;;
1218;SDS011;599;51.494;6.670;2022-09-03T00:52:02;2.93;;;1.83;;
1218;SDS011;599;51.494;6.670;2022-09-03T00:57:21;5.10;;;2.53;;
1218;SDS011;599;51.494;6.670;2022-09-03T01:00:05;4.53;;;2.30;;
1218;SDS011;599;51.494;6.670;2022-09-03T01:10:56;2.90;;;2.60;;
1218;SDS011;599;51.494;6.670;2022-09-03T01:19:53;5.78;;;3.30;;
1218;SDS011;599;51.494;6.670;2022-09-03T01:22:46;6.57;;;3.90;;
1218;SDS011;599;51.494;6.670;2022-09-03T01:31:57;6.88;;;3.10;;
1218;SDS011;599;51.494;6.670;2022-09-03T01:35:22;3.78;;;2.58;;
1218;SDS011;599;51.494;6.670;2022-09-03T01:46:22;3.53;;;2.17;;
1218;SDS011;599;51.494;6.670;2022-09-03T01:51:55;7.95;;;1.85;;
1218;SDS011;599;51.494;6.670;2022-09-03T01:54:57;4.60;;;2.25;;
1218;SDS011;599;51.494;6.670;2022-09-03T01:57:39;9.80;;;2.45;;
1218;SDS011;599;51.494;6.670;2022-09-03T02:00:20;4.90;;;2.63;;
1218;SDS011;599;51.494;6.670;2022-09-03T02:02:50;3.88;;;2.88;;
1218;SDS011;599;51.494;6.670;2022-09-03T02:10:37;8.00;;;4.78;;
1218;SDS011;599;51.494;6.670;2022-09-03T02:13:18;8.15;;;4.55;;
1218;SDS011;599;51.494;6.670;2022-09-03T02:15:55;9.40;;;4.32;;
1218;SDS011;599;51.494;6.670;2022-09-03T02:18:30;9.85;;;5.15;;
1218;SDS011;599;51.494;6.670;2022-09-03T02:21:02;7.85;;;4.78;;
1218;SDS011;599;51.494;6.670;2022-09-03T02:23:29;7.50;;;4.93;;
1218;SDS011;599;51.494;6.670;2022-09-03T02:25:56;6.63;;;4.20;;
1218;SDS011;599;51.494;6.670;2022-09-03T02:28:27;9.10;;;5.00;;
1218;SDS011;599;51.494;6.670;2022-09-03T02:30:54;9.07;;;5.20;;
1218;SDS011;599;51.494;6.670;2022-09-03T02:33:20;9.18;;;6.10;;
1218;SDS011;599;51.494;6.670;2022-09-03T02:35:47;9.60;;;4.82;;
1218;SDS011;599;51.494;6.670;2022-09-03T02:38:14;6.60;;;4.53;;
1218;SDS011;599;51.494;6.670;2022-09-03T02:40:44;9.93;;;4.22;;
1218;SDS011;599;51.494;6.670;2022-09-03T02:43:12;6.93;;;4.18;;
1218;SDS011;599;51.494;6.670;2022-09-03T02:45:45;8.65;;;4.82;;
1218;SDS011;599;51.494;6.670;2022-09-03T02:48:14;5.88;;;4.40;;
1218;SDS011;599;51.494;6.670;2022-09-03T02:50:45;8.77;;;4.75;;
1218;SDS011;599;51.494;6.670;2022-09-03T02:53:11;8.13;;;4.00;;
1218;SDS011;599;51.494;6.670;2022-09-03T02:55:37;8.32;;;4.50;;
1218;SDS011;599;51.494;6.670;2022-09-03T02:58:03;9.37;;;4.87;;
1218;SDS011;599;51.494;6.670;2022-09-03T03:00:31;7.35;;;4.10;;
1218;SDS011;599;51.494;6.670;2022-09-03T03:02:57;6.93;;;4.35;;
1218;SDS011;599;51.494;6.670;2022-09-03T03:05:43;6.88;;;4.32;;
1218;SDS011;599;51.494;6.670;2022-09-03T03:08:12;7.82;;;4.00;;
1218;SDS011;599;51.494;6.670;2022-09-03T03:10:41;8.63;;;3.35;;
1218;SDS011;599;51.494;6.670;2022-09-03T03:13:10;9.02;;;3.60;;
1218;SDS011;599;51.494;6.670;2022-09-03T03:15:37;5.60;;;2.90;;
1218;SDS011;599;51.494;6.670;2022-09-03T03:18:04;5.95;;;3.70;;
1218;SDS011;599;51.494;6.670;2022-09-03T03:20:31;6.13;;;3.70;;
1218;SDS011;599;51.494;6.670;2022-09-03T03:23:01;8.95;;;4.15;;
1218;SDS011;599;51.494;6.670;2022-09-03T03:25:30;7.90;;;4.22;;
1218;SDS011;599;51.494;6.670;2022-09-03T03:27:57;10.93;;;4.43;;
1218;SDS011;599;51.494;6.670;2022-09-03T03:30:24;6.35;;;4.03;;
1218;SDS011;599;51.494;6.670;2022-09-03T03:32:51;7.35;;;4.25;;
1218;SDS011;599;51.494;6.670;2022-09-03T03:35:18;7.55;;;4.93;;
1218;SDS011;599;51.494;6.670;2022-09-03T03:37:44;8.68;;;4.70;;
1218;SDS011;599;51.494;6.670;2022-09-03T03:40:11;7.40;;;4.90;;
1218;SDS011;599;51.494;6.670;2022-09-03T03:42:38;7.82;;;4.15;;
1218;SDS011;599;51.494;6.670;2022-09-03T03:45:04;9.10;;;4.25;;
1218;SDS011;599;51.494;6.670;2022-09-03T03:47:32;7.50;;;4.40;;
1218;SDS011;599;51.494;6.670;2022-09-03T03:49:58;7.80;;;4.97;;
1218;SDS011;599;51.494;6.670;2022-09-03T03:52:25;7.28;;;4.13;;
1218;SDS011;599;51.494;6.670;2022-09-03T03:54:54;11.52;;;5.22;;
1218;SDS011;599;51.494;6.670;2022-09-03T03:57:21;8.23;;;5.20;;
1218;SDS011;599;51.494;6.670;2022-09-03T03:59:47;7.15;;;5.20;;
1218;SDS011;599;51.494;6.670;2022-09-03T04:02:14;8.23;;;4.68;;
1218;SDS011;599;51.494;6.670;2022-09-03T04:04:41;8.30;;;4.50;;
1218;SDS011;599;51.494;6.670;2022-09-03T04:07:07;8.18;;;4.80;;
1218;SDS011;599;51.494;6.670;2022-09-03T04:09:34;12.32;;;4.60;;
1218;SDS011;599;51.494;6.670;2022-09-03T04:12:00;7.70;;;4.23;;
1218;SDS011;599;51.494;6.670;2022-09-03T04:14:27;6.38;;;4.18;;
1218;SDS011;599;51.494;6.670;2022-09-03T04:16:53;6.83;;;4.40;;
1218;SDS011;599;51.494;6.670;2022-09-03T04:19:20;6.70;;;4.05;;
1218;SDS011;599;51.494;6.670;2022-09-03T04:21:46;6.07;;;4.07;;
1218;SDS011;599;51.494;6.670;2022-09-03T04:24:12;10.90;;;4.83;;
1218;SDS011;599;51.494;6.670;2022-09-03T04:26:38;6.90;;;4.50;;
1218;SDS011;599;51.494;6.670;2022-09-03T04:29:05;8.55;;;4.55;;
1218;SDS011;599;51.494;6.670;2022-09-03T04:31:35;7.32;;;4.63;;
1218;SDS011;599;51.494;6.670;2022-09-03T04:34:02;7.35;;;4.57;;
1218;SDS011;599;51.494;6.670;2022-09-03T04:36:36;8.68;;;3.90;;
1218;SDS011;599;51.494;6.670;2022-09-03T04:39:02;6.20;;;3.47;;
1218;SDS011;599;51.494;6.670;2022-09-03T04:41:28;6.77;;;4.10;;
1218;SDS011;599;51.494;6.670;2022-09-03T04:43:56;4.45;;;3.67;;
1218;SDS011;599;51.494;6.670;2022-09-03T04:46:24;8.18;;;4.05;;
1218;SDS011;599;51.494;6.670;2022-09-03T04:48:57;5.32;;;3.55;;
1218;SDS011;599;51.494;6.670;2022-09-03T04:51:25;7.13;;;3.53;;
1218;SDS011;599;51.494;6.670;2022-09-03T04:53:54;5.72;;;3.70;;
1218;SDS011;599;51.494;6.670;2022-09-03T04:56:26;5.85;;;3.50;;
1218;SDS011;599;51.494;6.670;2022-09-03T04:58:55;6.45;;;3.38;;
1218;SDS011;599;51.494;6.670;2022-09-03T05:01:27;5.68;;;3.80;;
1218;SDS011;599;51.494;6.670;2022-09-03T05:03:55;5.25;;;4.07;;
1218;SDS011;599;51.494;6.670;2022-09-03T05:06:22;5.35;;;2.72;;
1218;SDS011;599;51.494;6.670;2022-09-03T05:08:50;6.60;;;4.05;;
1218;SDS011;599;51.494;6.670;2022-09-03T05:11:17;7.05;;;4.05;;
1218;SDS011;599;51.494;6.670;2022-09-03T05:13:50;4.78;;;4.03;;
1218;SDS011;599;51.494;6.670;2022-09-03T05:16:19;11.90;;;4.53;;
1218;SDS011;599;51.494;6.670;2022-09-03T05:18:46;6.43;;;4.13;;
1218;SDS011;599;51.494;6.670;2022-09-03T05:21:16;7.22;;;4.13;;
1218;SDS011;599;51.494;6.670;2022-09-03T05:23:44;6.53;;;4.60;;
1218;SDS011;599;51.494;6.670;2022-09-03T05:26:12;9.10;;;4.55;;
1218;SDS011;599;51.494;6.670;2022-09-03T05:28:44;5.57;;;3.88;;
1218;SDS011;599;51.494;6.670;2022-09-03T05:31:12;9.68;;;4.03;;
1218;SDS011;599;51.494;6.670;2022-09-03T05:33:46;7.85;;;5.10;;
1218;SDS011;599;51.494;6.670;2022-09-03T05:36:18;9.02;;;5.40;;
1218;SDS011;599;51.494;6.670;2022-09-03T05:38:47;13.25;;;4.53;;
1218;SDS011;599;51.494;6.670;2022-09-03T05:41:14;5.95;;;4.20;;
1218;SDS011;599;51.494;6.670;2022-09-03T05:43:41;6.68;;;4.20;;
1218;SDS011;599;51.494;6.670;2022-09-03T05:46:12;10.73;;;4.75;;
1218;SDS011;599;51.494;6.670;2022-09-03T05:48:42;4.70;;;3.35;;
1218;SDS011;599;51.494;6.670;2022-09-03T05:51:10;7.53;;;4.68;;
1218;SDS011;599;51.494;6.670;2022-09-03T05:53:41;7.60;;;4.40;;
1218;SDS011;599;51.494;6.670;2022-09-03T05:56:13;5.82;;;4.20;;
1218;SDS011;599;51.494;6.670;2022-09-03T05:58:48;6.70;;;3.72;;
1218;SDS011;599;51.494;6.670;2022-09-03T06:01:17;7.18;;;4.28;;
1218;SDS011;599;51.494;6.670;2022-09-03T06:04:05;7.50;;;4.10;;
1218;SDS011;599;51.494;6.670;2022-09-03T06:06:36;9.13;;;3.50;;
1218;SDS011;599;51.494;6.670;2022-09-03T06:09:08;8.30;;;4.32;;
1218;SDS011;599;51.494;6.670;2022-09-03T06:11:39;7.18;;;4.18;;
1218;SDS011;599;51.494;6.670;2022-09-03T06:14:07;8.38;;;4.88;;
1218;SDS011;599;51.494;6.670;2022-09-03T06:16:42;9.52;;;3.97;;
1218;SDS011;599;51.494;6.670;2022-09-03T06:19:13;8.75;;;4.00;;
1218;SDS011;599;51.494;6.670;2022-09-03T06:21:41;9.48;;;4.03;;
1218;SDS011;599;51.494;6.670;2022-09-03T06:24:10;10.90;;;4.93;;
1218;SDS011;599;51.494;6.670;2022-09-03T06:26:41;9.30;;;4.75;;
1218;SDS011;599;51.494;6.670;2022-09-03T06:29:09;7.57;;;4.72;;
1218;SDS011;599;51.494;6.670;2022-09-03T06:31:36;6.75;;;4.40;;
1218;SDS011;599;51.494;6.670;2022-09-03T06:34:03;8.00;;;5.30;;
1218;SDS011;599;51.494;6.670;2022-09-03T06:36:30;9.38;;;5.63;;
1218;SDS011;599;51.494;6.670;2022-09-03T06:38:57;11.05;;;6.00;;
1218;SDS011;599;51.494;6.670;2022-09-03T06:41:25;7.25;;;6.10;;
1218;SDS011;599;51.494;6.670;2022-09-03T06:43:58;7.97;;;4.57;;
1218;SDS011;599;51.494;6.670;2022-09-03T06:46:28;14.05;;;5.35;;
1218;SDS011;599;51.494;6.670;2022-09-03T06:48:59;12.80;;;6.03;;
1218;SDS011;599;51.494;6.670;2022-09-03T06:51:26;9.63;;;4.43;;
1218;SDS011;599;51.494;6.670;2022-09-03T06:53:58;8.67;;;5.23;;
1218;SDS011;599;51.494;6.670;2022-09-03T06:56:30;15.40;;;5.90;;
1218;SDS011;599;51.494;6.670;2022-09-03T06:58:59;10.87;;;6.00;;
1218;SDS011;599;51.494;6.670;2022-09-03T07:01:30;8.57;;;5.00;;
1218;SDS011;599;51.494;6.670;2022-09-03T07:03:59;8.67;;;5.30;;
1218;SDS011;599;51.494;6.670;2022-09-03T07:06:29;10.27;;;7.00;;
1218;SDS011;599;51.494;6.670;2022-09-03T07:09:05;8.47;;;5.47;;
1218;SDS011;599;51.494;6.670;2022-09-03T07:11:32;10.40;;;7.40;;
1218;SDS011;599;51.494;6.670;2022-09-03T07:14:00;11.80;;;6.70;;
1218;SDS011;599;51.494;6.670;2022-09-03T07:16:34;11.70;;;5.37;;
1218;SDS011;599;51.494;6.670;2022-09-03T07:19:02;6.77;;;4.87;;
1218;SDS011;599;51.494;6.670;2022-09-03T07:21:33;9.77;;;4.30;;
1218;SDS011;599;51.494;6.670;2022-09-03T07:24:01;11.37;;;4.47;;
1218;SDS011;599;51.494;6.670;2022-09-03T07:26:29;8.97;;;4.97;;
1218;SDS011;599;51.494;6.670;2022-09-03T07:28:59;8.17;;;4.40;;
1218;SDS011;599;51.494;6.670;2022-09-03T07:31:30;10.43;;;4.30;;
1218;SDS011;599;51.494;6.670;2022-09-03T07:34:00;6.50;;;3.27;;
1218;SDS011;599;51.494;6.670;2022-09-03T07:36:34;5.93;;;3.43;;
1218;SDS011;599;51.494;6.670;2022-09-03T07:39:11;10.40;;;2.90;;
1218;SDS011;599;51.494;6.670;2022-09-03T07:41:39;6.53;;;3.40;;
1218;SDS011;599;51.494;6.670;2022-09-03T07:44:10;7.00;;;3.10;;
1218;SDS011;599;51.494;6.670;2022-09-03T07:46:42;7.27;;;2.80;;
1218;SDS011;599;51.494;6.670;2022-09-03T07:49:11;4.30;;;2.77;;
1218;SDS011;599;51.494;6.670;2022-09-03T07:51:38;8.83;;;3.10;;
1218;SDS011;599;51.494;6.670;2022-09-03T07:54:06;5.40;;;3.40;;
1218;SDS011;599;51.494;6.670;2022-09-03T07:56:36;4.97;;;3.17;;
1218;SDS011;599;51.494;6.670;2022-09-03T07:59:04;8.23;;;3.37;;
1218;SDS011;599;51.494;6.670;2022-09-03T08:01:32;7.13;;;3.60;;
1218;SDS011;599;51.494;6.670;2022-09-03T08:04:03;9.03;;;3.60;;
1218;SDS011;599;51.494;6.670;2022-09-03T08:06:31;3.00;;;2.10;;
1218;SDS011;599;51.494;6.670;2022-09-03T08:08:59;4.53;;;3.03;;
1218;SDS011;599;51.494;6.670;2022-09-03T08:11:30;4.50;;;2.60;;
1218;SDS011;599;51.494;6.670;2022-09-03T08:14:02;11.50;;;2.80;;
1218;SDS011;599;51.494;6.670;2022-09-03T08:16:33;8.30;;;2.70;;
1218;SDS011;599;51.494;6.670;2022-09-03T08:19:02;5.70;;;2.70;;
1218;SDS011;599;51.494;6.670;2022-09-03T08:21:29;9.50;;;4.33;;
1218;SDS011;599;51.494;6.670;2022-09-03T08:23:56;4.40;;;2.63;;
1218;SDS011;599;51.494;6.670;2022-09-03T08:26:28;6.07;;;3.13;;
1218;SDS011;599;51.494;6.670;2022-09-03T08:28:59;6.23;;;2.80;;
1218;SDS011;599;51.494;6.670;2022-09-03T08:31:26;4.53;;;2.13;;
1218;SDS011;599;51.494;6.670;2022-09-03T08:33:54;4.70;;;2.47;;
1218;SDS011;599;51.494;6.670;2022-09-03T08:36:27;5.50;;;2.47;;
1218;SDS011;599;51.494;6.670;2022-09-03T08:41:34;7.00;;;3.20;;
1218;SDS011;599;51.494;6.670;2022-09-03T08:44:44;4.07;;;2.20;;
1218;SDS011;599;51.494;6.670;2022-09-03T08:50:37;3.90;;;2.13;;
1218;SDS011;599;51.494;6.670;2022-09-03T08:56:09;2.20;;;1.60;;
1218;SDS011;599;51.494;6.670;2022-09-03T08:58:39;6.67;;;3.07;;
1218;SDS011;599;51.494;6.670;2022-09-03T09:06:34;4.53;;;1.70;;
1218;SDS011;599;51.494;6.670;2022-09-03T09:21:26;1.90;;;1.33;;
1218;SDS011;599;51.494;6.670;2022-09-03T09:23:59;3.70;;;1.73;;
1218;SDS011;599;51.494;6.670;2022-09-03T09:26:30;2.07;;;1.30;;
1218;SDS011;599;51.494;6.670;2022-09-03T09:29:02;2.80;;;1.83;;
1218;SDS011;599;51.494;6.670;2022-09-03T09:31:34;2.80;;;1.70;;
1218;SDS011;599;51.494;6.670;2022-09-03T09:34:02;9.13;;;2.03;;
1218;SDS011;599;51.494;6.670;2022-09-03T09:36:31;2.60;;;2.10;;
1218;SDS011;599;51.494;6.670;2022-09-03T09:39:09;7.10;;;2.07;;
1218;SDS011;599;51.494;6.670;2022-09-03T09:41:36;2.30;;;1.57;;
1218;SDS011;599;51.494;6.670;2022-09-03T09:44:02;2.83;;;1.67;;
1218;SDS011;599;51.494;6.670;2022-09-03T09:46:35;7.13;;;2.00;;
1218;SDS011;599;51.494;6.670;2022-09-03T09:49:07;4.80;;;1.90;;
1218;SDS011;599;51.494;6.670;2022-09-03T09:51:59;5.83;;;2.13;;
1218;SDS011;599;51.494;6.670;2022-09-03T09:54:27;5.70;;;2.27;;
1218;SDS011;599;51.494;6.670;2022-09-03T09:57:01;4.57;;;1.97;;
1218;SDS011;599;51.494;6.670;2022-09-03T09:59:30;2.37;;;1.53;;
1218;SDS011;599;51.494;6.670;2022-09-03T10:02:06;3.60;;;1.77;;
1218;SDS011;599;51.494;6.670;2022-09-03T10:04:45;3.70;;;1.50;;
1218;SDS011;599;51.494;6.670;2022-09-03T10:10:00;3.20;;;1.43;;
1218;SDS011;599;51.494;6.670;2022-09-03T10:20:30;5.30;;;2.27;;
1218;SDS011;599;51.494;6.670;2022-09-03T10:25:56;4.33;;;1.90;;
1218;SDS011;599;51.494;6.670;2022-09-03T10:28:35;5.20;;;1.93;;
1218;SDS011;599;51.494;6.670;2022-09-03T10:31:40;5.20;;;2.23;;
1218;SDS011;599;51.494;6.670;2022-09-03T10:34:28;8.27;;;2.50;;
1218;SDS011;599;51.494;6.670;2022-09-03T10:46:02;2.60;;;1.83;;
1218;SDS011;599;51.494;6.670;2022-09-03T10:51:38;3.13;;;1.70;;
1218;SDS011;599;51.494;6.670;2022-09-03T10:54:29;4.67;;;1.80;;
1218;SDS011;599;51.494;6.670;2022-09-03T11:00:53;4.17;;;2.50;;
1218;SDS011;599;51.494;6.670;2022-09-03T11:06:23;4.23;;;1.80;;
1218;SDS011;599;51.494;6.670;2022-09-03T11:09:04;4.43;;;2.23;;
1218;SDS011;599;51.494;6.670;2022-09-03T11:11:47;6.93;;;2.40;;
1218;SDS011;599;51.494;6.670;2022-09-03T11:14:29;4.20;;;2.13;;
1218;SDS011;599;51.494;6.670;2022-09-03T11:17:06;3.07;;;1.43;;
1218;SDS011;599;51.494;6.670;2022-09-03T11:19:45;4.23;;;2.30;;
1218;SDS011;599;51.494;6.670;2022-09-03T11:22:17;4.60;;;2.00;;
1218;SDS011;599;51.494;6.670;2022-09-03T11:24:45;3.00;;;1.80;;
1218;SDS011;599;51.494;6.670;2022-09-03T11:30:08;6.17;;;2.60;;
1218;SDS011;599;51.494;6.670;2022-09-03T11:38:07;2.30;;;1.93;;
1218;SDS011;599;51.494;6.670;2022-09-03T11:43:40;4.47;;;2.20;;
1218;SDS011;599;51.494;6.670;2022-09-03T11:53:55;5.53;;;2.30;;
1218;SDS011;599;51.494;6.670;2022-09-03T11:56:32;2.57;;;1.83;;
1218;SDS011;599;51.494;6.670;2022-09-03T12:04:24;3.43;;;2.50;;
1218;SDS011;599;51.494;6.670;2022-09-03T12:12:28;3.13;;;2.57;;
1218;SDS011;599;51.494;6.670;2022-09-03T12:14:58;2.70;;;1.93;;
1218;SDS011;599;51.494;6.670;2022-09-03T12:17:47;3.00;;;2.30;;
1218;SDS011;599;51.494;6.670;2022-09-03T12:20:38;7.43;;;4.23;;
1218;SDS011;599;51.494;6.670;2022-09-03T12:23:05;6.83;;;4.50;;
1218;SDS011;599;51.494;6.670;2022-09-03T12:25:32;4.23;;;3.10;;
1218;SDS011;599;51.494;6.670;2022-09-03T12:27:59;6.30;;;4.23;;
1218;SDS011;599;51.494;6.670;2022-09-03T12:30:29;5.43;;;3.70;;
1218;SDS011;599;51.494;6.670;2022-09-03T12:33:04;4.60;;;3.23;;
1218;SDS011;599;51.494;6.670;2022-09-03T12:35:31;5.73;;;3.00;;
1218;SDS011;599;51.494;6.670;2022-09-03T12:37:57;2.60;;;2.20;;
1218;SDS011;599;51.494;6.670;2022-09-03T12:40:24;3.67;;;2.40;;
1218;SDS011;599;51.494;6.670;2022-09-03T12:42:52;2.90;;;2.60;;
1218;SDS011;599;51.494;6.670;2022-09-03T12:45:24;3.77;;;2.13;;
1218;SDS011;599;51.494;6.670;2022-09-03T12:47:51;5.07;;;2.90;;
1218;SDS011;599;51.494;6.670;2022-09-03T12:50:23;5.50;;;3.50;;
1218;SDS011;599;51.494;6.670;2022-09-03T12:55:34;3.83;;;3.20;;
1218;SDS011;599;51.494;6.670;2022-09-03T12:58:32;3.47;;;2.40;;
1218;SDS011;599;51.494;6.670;2022-09-03T13:01:13;2.63;;;2.40;;
1218;SDS011;599;51.494;6.670;2022-09-03T13:03:49;4.80;;;2.53;;
1218;SDS011;599;51.494;6.670;2022-09-03T13:06:20;4.17;;;3.60;;
1218;SDS011;599;51.494;6.670;2022-09-03T13:11:22;5.50;;;2.40;;
1218;SDS011;599;51.494;6.670;2022-09-03T13:13:59;3.43;;;2.00;;
1218;SDS011;599;51.494;6.670;2022-09-03T13:28:15;3.20;;;2.53;;
1218;SDS011;599;51.494;6.670;2022-09-03T13:31:11;4.93;;;2.50;;
1218;SDS011;599;51.494;6.670;2022-09-03T13:33:54;3.20;;;2.60;;
1218;SDS011;599;51.494;6.670;2022-09-03T13:36:43;4.73;;;3.90;;
1218;SDS011;599;51.494;6.670;2022-09-03T13:39:32;5.90;;;4.10;;
1218;SDS011;599;51.494;6.670;2022-09-03T13:44:58;4.43;;;2.60;;
1218;SDS011;599;51.494;6.670;2022-09-03T13:56:33;3.87;;;2.20;;
1218;SDS011;599;51.494;6.670;2022-09-03T13:59:41;2.57;;;2.20;;
1218;SDS011;599;51.494;6.670;2022-09-03T14:10:58;2.77;;;2.37;;
1218;SDS011;599;51.494;6.670;2022-09-03T14:14:01;6.63;;;2.40;;
1218;SDS011;599;51.494;6.670;2022-09-03T14:16:55;4.37;;;2.33;;
1218;SDS011;599;51.494;6.670;2022-09-03T14:25:16;4.03;;;2.30;;
1218;SDS011;599;51.494;6.670;2022-09-03T14:27:45;6.00;;;5.40;;
1218;SDS011;599;51.494;6.670;2022-09-03T14:32:53;7.03;;;6.17;;
1218;SDS011;599;51.494;6.670;2022-09-03T14:39:07;5.13;;;4.63;;
1218;SDS011;599;51.494;6.670;2022-09-03T14:50:27;3.90;;;2.20;;
1218;SDS011;599;51.494;6.670;2022-09-03T15:08:28;8.47;;;6.10;;
1218;SDS011;599;51.494;6.670;2022-09-03T15:11:02;11.20;;;9.97;;
1218;SDS011;599;51.494;6.670;2022-09-03T15:14:13;13.70;;;11.40;;
1218;SDS011;599;51.494;6.670;2022-09-03T15:16:55;14.17;;;12.23;;
1218;SDS011;599;51.494;6.670;2022-09-03T15:25:18;15.70;;;10.90;;
1218;SDS011;599;51.494;6.670;2022-09-03T15:30:44;14.13;;;10.87;;
1218;SDS011;599;51.494;6.670;2022-09-03T15:33:29;17.57;;;9.70;;
1218;SDS011;599;51.494;6.670;2022-09-03T15:39:00;10.40;;;6.47;;
1218;SDS011;599;51.494;6.670;2022-09-03T15:41:45;5.97;;;4.53;;
1218;SDS011;599;51.494;6.670;2022-09-03T15:44:34;6.23;;;3.33;;
1218;SDS011;599;51.494;6.670;2022-09-03T15:47:11;7.37;;;3.90;;
1218;SDS011;599;51.494;6.670;2022-09-03T15:50:02;7.80;;;4.40;;
1218;SDS011;599;51.494;6.670;2022-09-03T15:55:48;27.13;;;12.70;;
1218;SDS011;599;51.494;6.670;2022-09-03T15:58:34;10.87;;;5.00;;
1218;SDS011;599;51.494;6.670;2022-09-03T16:04:24;4.77;;;3.47;;
1218;SDS011;599;51.494;6.670;2022-09-03T16:15:37;20.60;;;10.80;;
1218;SDS011;599;51.494;6.670;2022-09-03T16:18:21;12.63;;;6.37;;
1218;SDS011;599;51.494;6.670;2022-09-03T16:21:03;9.63;;;4.40;;
1218;SDS011;599;51.494;6.670;2022-09-03T16:26:27;8.77;;;5.00;;
1218;SDS011;599;51.494;6.670;2022-09-03T16:29:08;6.97;;;3.53;;
1218;SDS011;599;51.494;6.670;2022-09-03T17:07:02;7.70;;;4.50;;
1218;SDS011;599;51.494;6.670;2022-09-03T17:09:59;8.70;;;4.70;;
1218;SDS011;599;51.494;6.670;2022-09-03T17:18:24;8.77;;;4.07;;
1218;SDS011;599;51.494;6.670;2022-09-03T17:21:04;7.20;;;4.20;;
1218;SDS011;599;51.494;6.670;2022-09-03T17:27:48;6.30;;;3.80;;
1218;SDS011;599;51.494;6.670;2022-09-03T17:30:54;8.20;;;4.53;;
1218;SDS011;599;51.494;6.670;2022-09-03T17:36:30;8.97;;;3.67;;
1218;SDS011;599;51.494;6.670;2022-09-03T17:41:46;3.90;;;3.07;;
1218;SDS011;599;51.494;6.670;2022-09-03T17:49:47;3.60;;;2.57;;
1218;SDS011;599;51.494;6.670;2022-09-03T18:12:46;4.07;;;3.37;;
1218;SDS011;599;51.494;6.670;2022-09-03T18:15:24;4.83;;;3.47;;
1218;SDS011;599;51.494;6.670;2022-09-03T18:17:57;4.33;;;2.67;;
1218;SDS011;599;51.494;6.670;2022-09-03T18:20:39;4.77;;;3.33;;
1218;SDS011;599;51.494;6.670;2022-09-03T18:27:41;7.37;;;3.70;;
1218;SDS011;599;51.494;6.670;2022-09-03T18:30:40;7.93;;;3.73;;
1218;SDS011;599;51.494;6.670;2022-09-03T18:33:24;5.50;;;3.33;;
1218;SDS011;599;51.494;6.670;2022-09-03T18:36:10;6.27;;;4.17;;
1218;SDS011;599;51.494;6.670;2022-09-03T18:39:25;6.37;;;3.77;;
1218;SDS011;599;51.494;6.670;2022-09-03T18:49:26;5.37;;;4.77;;
1218;SDS011;599;51.494;6.670;2022-09-03T18:52:37;5.07;;;3.53;;
1218;SDS011;599;51.494;6.670;2022-09-03T19:06:03;5.07;;;2.97;;
1218;SDS011;599;51.494;6.670;2022-09-03T19:09:30;4.23;;;3.73;;
1218;SDS011;599;51.494;6.670;2022-09-03T19:12:33;3.60;;;2.90;;
1218;SDS011;599;51.494;6.670;2022-09-03T19:19:44;5.30;;;3.57;;
1218;SDS011;599;51.494;6.670;2022-09-03T19:22:27;5.47;;;3.90;;
1218;SDS011;599;51.494;6.670;2022-09-03T19:25:24;3.60;;;3.03;;
1218;SDS011;599;51.494;6.670;2022-09-03T19:28:18;5.03;;;3.40;;
1218;SDS011;599;51.494;6.670;2022-09-03T19:38:38;3.37;;;3.07;;
1218;SDS011;599;51.494;6.670;2022-09-03T19:41:52;3.83;;;3.50;;
1218;SDS011;599;51.494;6.670;2022-09-03T19:45:00;5.40;;;3.40;;
1218;SDS011;599;51.494;6.670;2022-09-03T19:48:00;5.03;;;2.70;;
1218;SDS011;599;51.494;6.670;2022-09-03T19:51:10;4.63;;;3.17;;
1218;SDS011;599;51.494;6.670;2022-09-03T19:53:58;3.27;;;2.80;;
1218;SDS011;599;51.494;6.670;2022-09-03T19:56:47;3.80;;;3.30;;
1218;SDS011;599;51.494;6.670;2022-09-03T19:59:35;4.80;;;3.53;;
1218;SDS011;599;51.494;6.670;2022-09-03T20:02:23;4.23;;;2.80;;
1218;SDS011;599;51.494;6.670;2022-09-03T20:05:26;4.57;;;3.80;;
1218;SDS011;599;51.494;6.670;2022-09-03T20:08:12;3.97;;;3.57;;
1218;SDS011;599;51.494;6.670;2022-09-03T20:10:59;5.67;;;4.07;;
1218;SDS011;599;51.494;6.670;2022-09-03T20:13:28;7.03;;;4.07;;
1218;SDS011;599;51.494;6.670;2022-09-03T20:16:23;4.73;;;4.07;;
1218;SDS011;599;51.494;6.670;2022-09-03T20:53:26;4.37;;;3.67;;
1218;SDS011;599;51.494;6.670;2022-09-03T20:57:09;5.33;;;2.83;;
1218;SDS011;599;51.494;6.670;2022-09-03T20:59:22;3.10;;;2.40;;
1218;SDS011;599;51.494;6.670;2022-09-03T21:11:03;3.17;;;2.87;;
1218;SDS011;599;51.494;6.670;2022-09-03T21:29:01;7.20;;;2.77;;
1218;SDS011;599;51.494;6.670;2022-09-03T21:33:18;6.17;;;4.17;;
1218;SDS011;599;51.494;6.670;2022-09-03T21:40:41;3.70;;;3.17;;
1218;SDS011;599;51.494;6.670;2022-09-03T21:43:35;3.40;;;3.00;;
1218;SDS011;599;51.494;6.670;2022-09-03T21:46:17;5.93;;;2.60;;
1218;SDS011;599;51.494;6.670;2022-09-03T21:57:19;4.53;;;2.70;;
1218;SDS011;599;51.494;6.670;2022-09-03T22:03:42;3.83;;;2.90;;
1218;SDS011;599;51.494;6.670;2022-09-03T22:06:13;4.80;;;3.37;;
1218;SDS011;599;51.494;6.670;2022-09-03T22:08:54;4.70;;;3.17;;
1218;SDS011;599;51.494;6.670;2022-09-03T22:11:43;3.37;;;2.97;;
1218;SDS011;599;51.494;6.670;2022-09-03T22:14:34;7.70;;;3.30;;
1218;SDS011;599;51.494;6.670;2022-09-03T22:20:08;3.10;;;2.80;;
1218;SDS011;599;51.494;6.670;2022-09-03T22:22:48;3.33;;;3.03;;
1218;SDS011;599;51.494;6.670;2022-09-03T22:25:48;3.80;;;2.70;;
1218;SDS011;599;51.494;6.670;2022-09-03T22:28:38;3.93;;;3.53;;
1218;SDS011;599;51.494;6.670;2022-09-03T22:31:29;2.77;;;2.57;;
1218;SDS011;599;51.494;6.670;2022-09-03T22:46:01;3.87;;;3.30;;
1218;SDS011;599;51.494;6.670;2022-09-03T22:51:05;8.57;;;4.03;;
1218;SDS011;599;51.494;6.670;2022-09-03T22:56:18;4.77;;;4.23;;
1218;SDS011;599;51.494;6.670;2022-09-03T22:58:59;5.17;;;4.17;;
1218;SDS011;599;51.494;6.670;2022-09-03T23:04:45;6.60;;;5.43;;
1218;SDS011;599;51.494;6.670;2022-09-03T23:07:41;7.07;;;6.00;;
1218;SDS011;599;51.494;6.670;2022-09-03T23:10:25;10.93;;;7.87;;
1218;SDS011;599;51.494;6.670;2022-09-03T23:15:38;14.53;;;9.10;;
1218;SDS011;599;51.494;6.670;2022-09-03T23:18:13;8.77;;;7.40;;
1218;SDS011;599;51.494;6.670;2022-09-03T23:20:46;12.83;;;7.90;;
1218;SDS011;599;51.494;6.670;2022-09-03T23:23:28;10.73;;;7.80;;
1218;SDS011;599;51.494;6.670;2022-09-03T23:28:43;11.17;;;8.47;;
1218;SDS011;599;51.494;6.670;2022-09-03T23:31:20;10.70;;;8.60;;
1218;SDS011;599;51.494;6.670;2022-09-03T23:33:50;9.17;;;8.00;;
1218;SDS011;599;51.494;6.670;2022-09-03T23:39:02;7.70;;;6.40;;
1218;SDS011;599;51.494;6.670;2022-09-03T23:47:53;4.13;;;3.73;;
1218;SDS011;599;51.494;6.670;2022-09-03T23:53:31;3.63;;;3.23;;
1218;SDS011;599;51.494;6.670;2022-09-03T23:59:04;3.20;;;2.90;;
